Time;durP1;ratioP1;P1;durP2;ratioP2;P2;SDS_P1;SDS_P2;PMS_P1;PMS_P2;Temp;Humidity;BMP_temperature;BMP_pressure;BME280_temperature;BME280_humidity;BME280_pressure;Samples;Min_cycle;Max_cycle;Signal;HPM_P1;HPM_P2
2023/01/22 00:02:15;;;;;;;;;30.25;21.75;;;;;2.06;100.00;102958.66;4995085;28;45460;-82
2023/01/22 00:04:40;;;;;;;;;30.75;21.50;;;;;2.06;100.00;102972.41;4993086;28;64054;-82
2023/01/22 00:07:06;;;;;;;;;23.25;19.00;;;;;2.11;100.00;102977.72;4995804;28;59911;-81
2023/01/22 00:09:31;;;;;;;;;27.00;19.00;;;;;2.03;100.00;102958.56;4994107;28;66082;-81
2023/01/22 00:11:56;;;;;;;;;33.75;21.25;;;;;2.06;100.00;102967.28;4995743;28;62823;-81
2023/01/22 00:14:22;;;;;;;;;42.50;22.00;;;;;1.94;100.00;102957.34;4996408;28;45504;-81
2023/01/22 00:16:47;;;;;;;;;34.25;24.25;;;;;1.90;100.00;102962.28;4995483;28;57684;-82
2023/01/22 00:19:12;;;;;;;;;38.75;22.50;;;;;1.90;100.00;102959.72;4994696;28;45479;-81
2023/01/22 00:21:38;;;;;;;;;27.25;21.25;;;;;1.96;100.00;102972.81;4996170;28;45417;-81
2023/01/22 00:24:03;;;;;;;;;22.50;20.75;;;;;1.87;100.00;102964.72;4994121;28;62387;-81
2023/01/22 00:26:28;;;;;;;;;30.50;20.50;;;;;1.85;100.00;102963.78;4996031;28;45452;-82
2023/01/22 00:28:54;;;;;;;;;29.25;21.25;;;;;1.81;100.00;102967.03;4995612;28;53570;-81
2023/01/22 00:31:19;;;;;;;;;33.50;19.50;;;;;1.79;100.00;102951.56;4995458;28;55642;-81
2023/01/22 00:33:46;;;;;;;;;34.00;24.75;;;;;1.85;100.00;102953.50;4994401;28;45463;-81
2023/01/22 00:36:14;;;;;;;;;27.50;21.25;;;;;1.79;100.00;102951.56;4994899;28;45413;-82
2023/01/22 00:38:39;;;;;;;;;36.50;22.00;;;;;1.87;100.00;102960.47;5010884;28;48095;-81
2023/01/22 00:41:06;;;;;;;;;30.50;23.50;;;;;1.91;100.00;102958.91;4994566;28;45397;-81
2023/01/22 00:43:32;;;;;;;;;24.75;16.25;;;;;1.91;100.00;102958.91;4996357;28;45436;-82
2023/01/22 00:45:58;;;;;;;;;28.25;21.00;;;;;1.89;100.00;102956.25;4994648;28;45522;-82
2023/01/22 00:48:23;;;;;;;;;30.25;21.00;;;;;1.92;100.00;102958.97;4995641;28;46433;-82
2023/01/22 00:50:49;;;;;;;;;29.00;20.50;;;;;1.90;100.00;102957.16;4995638;28;45326;-82
2023/01/22 00:53:14;;;;;;;;;30.00;20.50;;;;;1.89;100.00;102956.25;4994360;28;45281;-81
2023/01/22 00:55:52;;;;;;;;;31.50;20.75;;;;;1.95;100.00;102963.38;4995416;28;57869;-82
2023/01/22 00:58:17;;;;;;;;;33.25;26.25;;;;;1.97;100.00;102961.75;4995569;28;45374;-81
2023/01/22 01:00:43;;;;;;;;;36.00;21.75;;;;;1.93;100.00;102942.75;4994352;28;45380;-82
2023/01/22 01:03:26;;;;;;;;;24.00;20.00;;;;;2.04;100.00;102957.72;4993273;28;64227;-81
2023/01/22 01:06:02;;;;;;;;;35.00;22.50;;;;;2.03;100.00;102956.00;4994576;28;45457;-82
2023/01/22 01:08:30;;;;;;;;;23.50;17.00;;;;;1.88;100.00;102936.53;4995203;28;47462;-82
2023/01/22 01:10:58;;;;;;;;;25.50;20.25;;;;;1.87;100.00;102928.78;4995620;28;45933;-82
2023/01/22 01:13:24;;;;;;;;;25.25;21.00;;;;;1.96;100.00;102939.44;5027504;28;45568;-81
2023/01/22 01:15:49;;;;;;;;;28.75;21.50;;;;;1.99;100.00;102934.44;4995578;28;45364;-82
2023/01/22 01:18:15;;;;;;;;;32.00;23.50;;;;;1.96;100.00;102929.16;4996367;28;69376;-82
2023/01/22 01:20:41;;;;;;;;;30.00;22.00;;;;;2.02;100.00;102936.22;4997581;28;46089;-81
2023/01/22 01:23:06;;;;;;;;;30.25;23.00;;;;;2.04;100.00;102944.88;4996900;28;66542;-82
2023/01/22 01:25:31;;;;;;;;;33.75;22.00;;;;;2.00;100.00;102948.16;4998179;28;61889;-82
2023/01/22 01:27:57;;;;;;;;;37.50;24.50;;;;;2.02;100.00;102954.22;4997552;28;45496;-81
2023/01/22 01:30:22;;;;;;;;;24.50;14.50;;;;;1.93;100.00;102934.16;4997350;28;45484;-81
2023/01/22 01:32:48;;;;;;;;;22.25;15.50;;;;;1.91;100.00;102951.19;4998126;28;50927;-82
2023/01/22 01:35:13;;;;;;;;;35.50;22.25;;;;;1.84;100.00;102944.94;4980867;28;45259;-81
2023/01/22 01:37:39;;;;;;;;;39.00;27.00;;;;;1.85;100.00;102946.69;4980741;28;48321;-81
2023/01/22 01:40:05;;;;;;;;;33.50;22.00;;;;;1.84;100.00;102949.16;4980242;28;59302;-81
2023/01/22 01:42:33;;;;;;;;;42.50;24.25;;;;;1.79;100.00;102949.00;4998572;28;45445;-82
2023/01/22 01:45:19;;;;;;;;;27.00;20.00;;;;;1.86;100.00;102960.41;4998464;28;45434;-82
2023/01/22 01:47:45;;;;;;;;;31.75;23.75;;;;;1.85;100.00;102961.22;4998004;28;45583;-81
2023/01/22 01:50:10;;;;;;;;;29.50;22.00;;;;;1.76;100.00;102936.00;4979908;28;68111;-82
2023/01/22 01:52:35;;;;;;;;;35.50;19.00;;;;;1.85;100.00;102950.94;4979859;28;65255;-81
2023/01/22 01:55:02;;;;;;;;;23.00;19.00;;;;;1.88;100.00;102953.66;4997548;28;65647;-81
2023/01/22 01:57:30;;;;;;;;;40.25;27.00;;;;;1.83;100.00;102960.28;4980726;28;46645;-82
2023/01/22 01:59:56;;;;;;;;;28.75;21.00;;;;;1.83;100.00;102958.56;4980549;28;45473;-81
2023/01/22 02:02:22;;;;;;;;;28.50;19.50;;;;;1.76;100.00;102942.84;4980899;28;45435;-82
2023/01/22 02:04:48;;;;;;;;;39.50;24.75;;;;;1.72;100.00;102942.69;4980492;28;45548;-81
2023/01/22 02:07:13;;;;;;;;;31.75;20.50;;;;;1.69;100.00;102936.56;4980509;28;45581;-82
2023/01/22 02:09:39;;;;;;;;;33.75;21.50;;;;;1.71;100.00;102937.53;4980066;28;51727;-81
2023/01/22 02:12:04;;;;;;;;;35.50;24.50;;;;;1.69;100.00;102937.47;4979813;28;59448;-81
2023/01/22 02:14:32;;;;;;;;;14.25;11.00;;;;;1.72;100.00;102944.41;4997787;28;45375;-81
2023/01/22 02:17:07;;;;;;;;;45.50;25.00;;;;;1.71;100.00;102940.97;4980266;28;46756;-81
2023/01/22 02:19:32;;;;;;;;;31.50;20.75;;;;;1.66;100.00;102934.75;4980533;28;45840;-81
2023/01/22 02:21:58;;;;;;;;;33.25;25.00;;;;;1.74;100.00;102953.03;4979617;28;60231;-81
2023/01/22 02:24:23;;;;;;;;;34.00;25.00;;;;;1.69;100.00;102942.59;4979636;28;63237;-82
2023/01/22 02:26:49;;;;;;;;;30.00;21.50;;;;;1.78;100.00;102961.75;4963557;28;54753;-81
2023/01/22 02:29:14;;;;;;;;;35.25;27.00;;;;;1.80;100.00;102967.84;4977543;28;69862;-82
2023/01/22 02:31:41;;;;;;;;;34.00;20.50;;;;;1.83;100.00;102957.72;4979542;28;64212;-81
2023/01/22 02:34:07;;;;;;;;;42.75;27.25;;;;;1.81;100.00;102956.75;4997645;28;45375;-80
2023/01/22 02:36:34;;;;;;;;;27.50;20.50;;;;;1.80;100.00;102955.00;4997633;28;46202;-82
2023/01/22 02:39:00;;;;;;;;;36.00;22.00;;;;;1.81;100.00;102949.06;4997667;28;45312;-82
2023/01/22 02:41:26;;;;;;;;;36.00;24.00;;;;;1.71;100.00;102937.53;4979616;28;53748;-81
2023/01/22 02:43:51;;;;;;;;;35.25;23.25;;;;;1.79;100.00;102953.25;4979439;28;51641;-81
2023/01/22 02:46:17;;;;;;;;;34.00;27.00;;;;;1.69;100.00;102931.41;4979897;28;46258;-81
2023/01/22 02:48:42;;;;;;;;;28.00;24.25;;;;;1.79;100.00;102946.44;4979905;28;45456;-82
2023/01/22 02:51:07;;;;;;;;;37.50;27.50;;;;;1.76;100.00;102936.00;4979031;28;58335;-81
2023/01/22 02:53:33;;;;;;;;;38.25;24.00;;;;;1.82;100.00;102949.13;4979452;28;55569;-81
2023/01/22 02:55:58;;;;;;;;;36.25;27.50;;;;;1.84;100.00;102947.50;4979805;28;47113;-81
2023/01/22 02:58:24;;;;;;;;;38.50;21.00;;;;;1.88;100.00;102954.53;4996964;28;45358;-82
2023/01/22 03:00:49;;;;;;;;;37.25;24.00;;;;;1.94;100.00;102956.47;4979804;28;45338;-82
2023/01/22 03:03:15;;;;;;;;;35.25;21.00;;;;;1.89;100.00;102948.56;4997315;28;45280;-81
2023/01/22 03:05:47;;;;;;;;;39.25;30.75;;;;;1.96;100.00;102952.28;4996959;28;46419;-81
2023/01/22 03:08:13;;;;;;;;;30.25;22.00;;;;;1.85;100.00;102948.38;4979676;28;45330;-80
2023/01/22 03:10:38;;;;;;;;;43.00;26.00;;;;;1.91;100.00;102966.59;4978982;28;59733;-81
2023/01/22 03:21:19;;;;;;;;;43.50;32.00;;;;;1.90;100.00;102955.47;4997172;28;45312;-81
2023/01/22 03:23:49;;;;;;;;;36.25;22.50;;;;;1.88;100.00;102946.81;4997042;28;45394;-81
2023/01/22 03:26:15;;;;;;;;;31.25;23.00;;;;;1.93;100.00;102952.13;4996974;28;45746;-81
2023/01/22 03:28:41;;;;;;;;;41.25;33.00;;;;;1.94;100.00;102944.50;4979103;28;45317;-81
2023/01/22 03:31:07;;;;;;;;;45.25;31.75;;;;;1.89;100.00;102935.72;4979482;28;45469;-81
2023/01/22 03:33:32;;;;;;;;;56.75;32.50;;;;;1.95;100.00;102950.53;4990671;28;45258;-82
2023/01/22 03:36:05;;;;;;;;;38.75;26.75;;;;;1.99;100.00;102944.69;4995374;28;47070;-82
2023/01/22 03:38:31;;;;;;;;;41.00;28.75;;;;;2.09;100.00;102951.97;4996640;28;45288;-81
2023/01/22 03:41:04;;;;;;;;;42.00;30.75;;;;;2.05;100.00;102939.81;4995341;28;45371;-82
2023/01/22 03:43:29;;;;;;;;;44.00;30.50;;;;;2.12;100.00;102956.38;4979160;28;45484;-82
2023/01/22 03:46:05;;;;;;;;;40.25;28.00;;;;;2.01;100.00;102937.94;4996184;28;46623;-81
2023/01/22 03:48:31;;;;;;;;;51.50;35.00;;;;;2.04;100.00;102939.75;4996574;28;45241;-82
2023/01/22 03:51:03;;;;;;;;;32.25;26.50;;;;;2.02;100.00;102949.94;4995470;28;45621;-81
2023/01/22 03:53:28;;;;;;;;;33.00;27.50;;;;;2.06;100.00;102959.56;4995372;28;45560;-81
2023/01/22 03:56:02;;;;;;;;;43.00;29.00;;;;;2.04;100.00;102956.03;4995255;28;68696;-81
2023/01/22 03:58:29;;;;;;;;;49.25;26.50;;;;;2.04;100.00;102956.03;4996281;28;45892;-81
2023/01/22 04:00:56;;;;;;;;;31.50;19.50;;;;;2.05;100.00;102956.94;4995414;28;45339;-81
2023/01/22 04:03:23;;;;;;;;;42.75;27.00;;;;;1.98;100.00;102939.50;4996494;28;45416;-81
2023/01/22 04:05:48;;;;;;;;;33.00;21.75;;;;;2.10;100.00;102958.00;4995027;28;46213;-82
2023/01/22 04:08:14;;;;;;;;;35.00;25.00;;;;;2.06;100.00;102939.00;4995627;28;57681;-81
2023/01/22 04:10:39;;;;;;;;;37.50;24.00;;;;;2.08;100.00;102937.38;4993919;28;65404;-82
2023/01/22 04:13:04;;;;;;;;;38.75;24.00;;;;;2.05;100.00;102928.66;4996054;28;46752;-82
2023/01/22 04:15:30;;;;;;;;;33.25;21.50;;;;;2.10;100.00;102938.31;4995233;28;71251;-82
2023/01/22 04:17:55;;;;;;;;;31.25;19.50;;;;;2.02;100.00;102939.66;4994813;28;45500;-81
2023/01/22 04:20:20;;;;;;;;;33.25;16.00;;;;;2.08;100.00;102949.31;4994439;28;60791;-81
2023/01/22 04:22:46;;;;;;;;;39.75;21.50;;;;;2.10;100.00;102952.88;4995333;28;64792;-82
2023/01/22 04:25:11;;;;;;;;;32.75;21.50;;;;;2.09;100.00;102951.09;4994475;28;45580;-82
2023/01/22 04:27:37;;;;;;;;;29.75;19.50;;;;;2.03;100.00;102935.44;4994213;28;64112;-81
2023/01/22 04:30:04;;;;;;;;;33.75;19.75;;;;;2.00;100.00;102938.72;4994845;28;45483;-81
2023/01/22 04:32:29;;;;;;;;;33.00;25.00;;;;;1.99;100.00;102939.56;4995948;28;45525;-81
2023/01/22 04:34:55;;;;;;;;;30.75;22.50;;;;;1.92;100.00;102938.41;4995146;28;61238;-82
2023/01/22 04:37:20;;;;;;;;;35.75;20.00;;;;;1.96;100.00;102939.44;4995280;28;64126;-82
2023/01/22 04:39:45;;;;;;;;;25.50;21.50;;;;;1.93;100.00;102934.16;4977566;28;58458;-81
2023/01/22 04:42:11;;;;;;;;;27.50;25.75;;;;;1.91;100.00;102933.22;4995133;28;67342;-81
2023/01/22 04:44:36;;;;;;;;;34.50;24.00;;;;;1.93;100.00;102929.91;4977919;28;56577;-82
2023/01/22 04:47:01;;;;;;;;;31.75;21.00;;;;;1.93;100.00;102929.00;4995575;28;45462;-81
2023/01/22 04:49:27;;;;;;;;;28.25;20.75;;;;;1.83;100.00;102914.91;4995525;28;45442;-81
2023/01/22 04:51:52;;;;;;;;;37.50;18.50;;;;;1.86;100.00;102916.75;4979545;28;51327;-81
2023/01/22 04:54:18;;;;;;;;;28.25;21.75;;;;;1.90;100.00;102927.22;4981186;28;45421;-81
2023/01/22 04:56:43;;;;;;;;;27.50;20.25;;;;;1.84;100.00;102919.25;4981593;28;45410;-81
2023/01/22 04:59:09;;;;;;;;;25.00;18.00;;;;;1.82;100.00;102914.84;4999239;28;45391;-82
2023/01/22 05:01:34;;;;;;;;;27.00;22.00;;;;;1.82;100.00;102907.16;4981798;28;46003;-81
2023/01/22 05:04:01;;;;;;;;;35.50;18.75;;;;;1.77;100.00;102909.53;4981605;28;45454;-81
2023/01/22 05:06:26;;;;;;;;;27.75;23.50;;;;;1.82;100.00;102922.56;4981466;28;45905;-82
2023/01/22 05:08:51;;;;;;;;;33.50;23.50;;;;;1.75;100.00;102908.59;4998024;28;62901;-82
2023/01/22 05:11:17;;;;;;;;;29.25;23.50;;;;;1.77;100.00;102914.66;4980888;28;59968;-81
2023/01/22 05:13:42;;;;;;;;;27.75;19.00;;;;;1.83;100.00;102912.34;4980693;28;69693;-81
2023/01/22 05:16:07;;;;;;;;;33.50;23.50;;;;;1.77;100.00;102904.41;4980752;28;59148;-81
2023/01/22 05:18:33;;;;;;;;;31.50;22.25;;;;;1.77;100.00;102903.53;4980622;28;55299;-82
2023/01/22 05:20:58;;;;;;;;;26.75;18.75;;;;;1.82;100.00;102904.56;4998440;28;63667;-81
2023/01/22 05:23:23;;;;;;;;;33.00;21.00;;;;;1.87;100.00;102913.34;4997571;28;69892;-82
2023/01/22 05:25:49;;;;;;;;;30.00;21.25;;;;;1.91;100.00;102904.97;4980210;28;68619;-82
2023/01/22 05:28:14;;;;;;;;;27.75;19.00;;;;;1.84;100.00;102890.09;4998791;28;45378;-81
2023/01/22 05:30:40;;;;;;;;;33.25;22.00;;;;;1.88;100.00;102895.44;4998023;28;63479;-81
2023/01/22 05:33:05;;;;;;;;;39.00;25.50;;;;;1.90;100.00;102888.69;4988091;28;67147;-82
2023/01/22 05:35:30;;;;;;;;;37.25;24.25;;;;;1.97;100.00;102912.03;4998092;28;62402;-81
2023/01/22 05:37:56;;;;;;;;;38.00;22.00;;;;;1.99;100.00;102911.31;4997662;28;58962;-81
2023/01/22 05:40:21;;;;;;;;;25.00;18.75;;;;;2.07;100.00;102911.63;4996761;28;65314;-82
2023/01/22 05:42:46;;;;;;;;;39.00;26.00;;;;;1.92;100.00;102876.78;4997503;28;66882;-81
2023/01/22 05:45:12;;;;;;;;;35.00;26.00;;;;;2.00;100.00;102892.50;4996771;28;63967;-82
2023/01/22 05:47:37;;;;;;;;;26.50;19.00;;;;;2.09;100.00;102900.56;4998527;28;45347;-82
2023/01/22 05:50:02;;;;;;;;;36.00;25.50;;;;;2.10;100.00;102901.47;4997751;28;62605;-81
2023/01/22 05:52:28;;;;;;;;;39.00;22.00;;;;;2.08;100.00;102901.41;4997992;28;47180;-81
2023/01/22 05:54:53;;;;;;;;;25.00;21.00;;;;;2.05;100.00;102896.13;4996395;28;66099;-82
2023/01/22 05:57:18;;;;;;;;;28.25;21.25;;;;;2.09;100.00;102900.56;4980034;28;59012;-81
2023/01/22 05:59:44;;;;;;;;;33.50;20.50;;;;;2.04;100.00;102884.09;4997201;28;45248;-82
2023/01/22 06:02:09;;;;;;;;;32.25;21.75;;;;;2.04;100.00;102884.09;4996454;28;47851;-81
2023/01/22 06:04:34;;;;;;;;;29.00;24.50;;;;;2.08;100.00;102905.66;4995482;28;66131;-81
2023/01/22 06:07:00;;;;;;;;;23.75;17.75;;;;;2.07;100.00;102912.50;4997298;28;61100;-81
2023/01/22 06:09:25;;;;;;;;;29.75;24.25;;;;;2.02;100.00;102895.13;4996524;28;53082;-81
2023/01/22 06:11:51;;;;;;;;;34.00;22.00;;;;;2.00;100.00;102894.19;4996192;28;66347;-81
2023/01/22 06:14:16;;;;;;;;;26.75;21.00;;;;;1.94;100.00;102894.81;4998155;28;45341;-82
2023/01/22 06:16:41;;;;;;;;;33.25;27.00;;;;;1.99;100.00;102897.56;4996934;28;45449;-82
2023/01/22 06:19:07;;;;;;;;;31.25;20.50;;;;;2.06;100.00;102913.31;4998402;28;45433;-82
2023/01/22 06:21:32;;;;;;;;;31.00;23.50;;;;;1.99;100.00;102908.75;4980105;28;47278;-82
2023/01/22 06:23:58;;;;;;;;;41.00;26.75;;;;;1.98;100.00;102896.69;4998083;28;45449;-81
2023/01/22 06:26:23;;;;;;;;;36.75;24.50;;;;;1.96;100.00;102902.59;4996590;28;56878;-82
2023/01/22 06:28:48;;;;;;;;;33.00;19.50;;;;;1.86;100.00;102888.50;4997231;28;62023;-82
2023/01/22 06:31:14;;;;;;;;;36.50;24.25;;;;;1.89;100.00;102910.03;4996339;28;48248;-82
2023/01/22 06:33:40;;;;;;;;;25.75;18.75;;;;;1.82;100.00;102908.03;4995677;28;66816;-81
2023/01/22 06:36:05;;;;;;;;;34.50;20.00;;;;;1.72;100.00;102890.47;4996473;28;45453;-81
2023/01/22 06:38:31;;;;;;;;;28.25;20.50;;;;;1.65;100.00;102880.75;4997799;28;45477;-82
2023/01/22 06:40:58;;;;;;;;;39.25;26.50;;;;;1.81;100.00;102908.84;4997558;28;46432;-82
2023/01/22 06:43:24;;;;;;;;;33.75;19.00;;;;;1.74;100.00;102907.69;4996406;28;45954;-81
2023/01/22 06:45:49;;;;;;;;;44.00;24.00;;;;;1.79;100.00;102918.19;4996630;28;45351;-82
2023/01/22 06:48:15;;;;;;;;;31.75;26.50;;;;;1.87;100.00;102924.50;4996802;28;65759;-81
2023/01/22 06:50:41;;;;;;;;;31.00;21.25;;;;;1.88;100.00;102910.00;4997022;28;47073;-82
2023/01/22 06:53:06;;;;;;;;;32.00;15.75;;;;;1.91;100.00;102921.28;4997562;28;45420;-82
2023/01/22 06:55:31;;;;;;;;;28.75;20.00;;;;;1.81;100.00;102901.13;4996397;28;45479;-82
2023/01/22 06:57:57;;;;;;;;;24.75;18.00;;;;;1.91;100.00;102915.22;4996636;28;64482;-81
2023/01/22 07:00:22;;;;;;;;;35.00;21.00;;;;;1.93;100.00;102918.75;4997489;28;46577;-82
2023/01/22 07:02:48;;;;;;;;;28.50;22.00;;;;;1.99;100.00;102929.28;4997508;28;45472;-82
2023/01/22 07:05:14;;;;;;;;;26.00;18.75;;;;;2.01;100.00;102926.78;4996719;28;52882;-82
2023/01/22 07:07:40;;;;;;;;;37.25;23.00;;;;;1.99;100.00;102925.81;4996102;28;45358;-82
2023/01/22 07:10:05;;;;;;;;;35.25;24.25;;;;;2.00;100.00;102931.03;4997046;28;45645;-82
2023/01/22 07:12:32;;;;;;;;;18.50;12.50;;;;;1.94;100.00;102923.94;4997219;28;45238;-82
2023/01/22 07:14:57;;;;;;;;;28.25;19.50;;;;;1.93;100.00;102924.78;4995700;28;45315;-82
2023/01/22 07:17:22;;;;;;;;;28.75;22.50;;;;;1.89;100.00;102924.56;4995178;28;65006;-82
2023/01/22 07:19:48;;;;;;;;;27.50;19.50;;;;;1.89;100.00;102935.72;5011645;28;53598;-82
2023/01/22 07:22:13;;;;;;;;;31.25;20.50;;;;;1.89;100.00;102937.41;4996206;28;67562;-82
2023/01/22 07:24:38;;;;;;;;;28.25;20.50;;;;;1.86;100.00;102935.59;4997339;28;52411;-81
2023/01/22 07:27:04;;;;;;;;;29.00;23.00;;;;;1.86;100.00;102940.75;4996611;28;59102;-81
2023/01/22 07:29:29;;;;;;;;;23.50;14.00;;;;;1.89;100.00;102947.69;4996589;28;51615;-82
2023/01/22 07:31:54;;;;;;;;;30.50;20.50;;;;;1.83;100.00;102943.16;4994787;28;65059;-81
2023/01/22 07:34:20;;;;;;;;;29.00;16.50;;;;;1.88;100.00;102951.09;4996001;28;60415;-81
2023/01/22 07:36:45;;;;;;;;;33.50;21.25;;;;;1.89;100.00;102942.53;4978685;28;54083;-82
2023/01/22 07:39:10;;;;;;;;;27.00;19.50;;;;;1.95;100.00;102955.66;4995997;28;71236;-82
2023/01/22 07:41:36;;;;;;;;;28.25;23.00;;;;;1.97;100.00;102948.91;4978552;28;64993;-82
2023/01/22 07:44:02;;;;;;;;;26.50;18.50;;;;;2.02;100.00;102962.78;4996894;28;45453;-82
2023/01/22 07:46:28;;;;;;;;;25.25;18.25;;;;;1.99;100.00;102951.50;4979301;28;45520;-82
2023/01/22 07:48:53;;;;;;;;;32.00;21.75;;;;;2.03;100.00;102956.84;4977888;28;72464;-81
2023/01/22 07:51:18;;;;;;;;;34.50;23.00;;;;;1.98;100.00;102953.22;4996091;28;59100;-82
2023/01/22 07:53:44;;;;;;;;;30.50;20.75;;;;;1.98;100.00;102953.22;4979175;28;45470;-82
2023/01/22 07:56:09;;;;;;;;;26.00;20.00;;;;;2.03;100.00;102962.00;4994524;28;67215;-82
2023/01/22 07:58:35;;;;;;;;;21.50;19.25;;;;;2.09;100.00;102963.94;4978538;28;56075;-82
2023/01/22 08:01:04;;;;;;;;;26.25;19.25;;;;;2.10;100.00;102956.31;4978315;28;67257;-82
2023/01/22 08:03:32;;;;;;;;;26.50;18.75;;;;;2.13;100.00;102958.09;4978857;28;45538;-82
2023/01/22 08:05:58;;;;;;;;;21.00;16.50;;;;;2.13;100.00;102943.56;4996476;28;45385;-81
2023/01/22 08:08:23;;;;;;;;;26.00;18.00;;;;;2.16;100.00;102953.09;4978737;28;46024;-82
2023/01/22 08:10:49;;;;;;;;;29.75;21.50;;;;;2.12;100.00;102959.81;4994520;28;62828;-82
2023/01/22 08:13:14;;;;;;;;;37.25;24.00;;;;;2.16;100.00;102976.22;4994268;28;51943;-83
2023/01/22 08:15:41;;;;;;;;;29.00;21.00;;;;;2.15;100.00;102968.47;4978600;28;49730;-79
2023/01/22 08:18:06;;;;;;;;;21.50;15.25;;;;;2.16;100.00;102980.50;4995479;28;46674;-80
2023/01/22 08:20:32;;;;;;;;;24.50;18.00;;;;;2.15;100.00;102973.59;4978785;28;45315;-79
2023/01/22 08:22:58;;;;;;;;;25.00;19.50;;;;;2.20;100.00;102984.94;4977120;28;45286;-79
2023/01/22 08:25:24;;;;;;;;;29.25;19.25;;;;;2.24;100.00;102986.81;4994708;28;45544;-80
2023/01/22 08:27:49;;;;;;;;;24.50;15.00;;;;;2.31;100.00;102989.72;4995374;28;46679;-80
2023/01/22 08:30:15;;;;;;;;;34.50;23.75;;;;;2.37;100.00;102990.78;4994221;28;67759;-80
2023/01/22 08:32:40;;;;;;;;;29.00;15.00;;;;;2.44;100.00;102991.09;4995495;28;45625;-80
2023/01/22 08:35:07;;;;;;;;;33.25;20.75;;;;;2.50;100.00;102993.03;4976505;28;45443;-81
2023/01/22 08:37:32;;;;;;;;;18.25;17.50;;;;;2.54;100.00;103000.03;4995905;28;46446;-79
2023/01/22 08:39:57;;;;;;;;;29.25;18.00;;;;;2.54;100.00;102994.03;4994525;28;47352;-81
2023/01/22 08:42:23;;;;;;;;;28.00;22.50;;;;;2.65;100.00;103008.19;4995343;28;63815;-80
2023/01/22 08:44:48;;;;;;;;;24.00;18.25;;;;;2.63;100.00;103000.41;4977136;28;59907;-79
2023/01/22 08:47:13;;;;;;;;;28.75;19.00;;;;;2.60;100.00;102997.75;4994669;28;59822;-81
2023/01/22 08:49:39;;;;;;;;;24.25;16.00;;;;;2.64;100.00;103009.91;4977875;28;45527;-81
2023/01/22 08:52:04;;;;;;;;;33.25;18.25;;;;;2.55;100.00;103000.94;4977320;28;62228;-81
2023/01/22 08:54:30;;;;;;;;;30.00;18.50;;;;;2.56;100.00;103005.25;4995111;28;60056;-81
2023/01/22 08:56:55;;;;;;;;;22.50;14.50;;;;;2.70;100.00;103015.28;4994130;28;46166;-82
2023/01/22 08:59:20;;;;;;;;;18.75;13.25;;;;;2.75;100.00;103007.78;4994022;28;69010;-80
2023/01/22 09:01:46;;;;;;;;;27.25;18.25;;;;;2.80;100.00;103019.09;4994919;28;45232;-81
2023/01/22 09:04:11;;;;;;;;;35.00;20.00;;;;;2.77;100.00;103013.84;4994407;28;45545;-79
2023/01/22 09:06:37;;;;;;;;;33.00;18.75;;;;;2.76;100.00;103004.34;4995399;28;45337;-81
2023/01/22 09:09:03;;;;;;;;;18.25;15.75;;;;;2.68;100.00;102983.50;4978076;28;45303;-79
2023/01/22 09:11:29;;;;;;;;;23.50;18.00;;;;;2.75;100.00;103004.28;4977791;28;45206;-79
2023/01/22 09:13:58;;;;;;;;;18.75;13.00;;;;;2.80;100.00;102990.78;4995499;28;45481;-81
2023/01/22 09:16:24;;;;;;;;;31.50;18.00;;;;;2.95;100.00;102987.06;4995118;28;46645;-80
2023/01/22 09:18:49;;;;;;;;;26.25;17.75;;;;;3.20;100.00;102991.47;4994956;28;45504;-82
2023/01/22 09:21:15;;;;;;;;;24.00;18.75;;;;;3.38;100.00;103001.56;4994887;28;45538;-81
2023/01/22 09:23:40;;;;;;;;;22.00;15.25;;;;;3.44;100.00;102976.06;4995189;28;45442;-80
2023/01/22 09:26:06;;;;;;;;;27.25;17.25;;;;;3.77;100.00;102989.28;4977419;28;45381;-80
2023/01/22 09:28:31;;;;;;;;;26.50;19.00;;;;;3.69;100.00;102975.22;4994358;28;69559;-80
2023/01/22 09:30:57;;;;;;;;;23.75;12.25;;;;;3.63;100.00;102977.59;4995064;28;45621;-80
2023/01/22 09:33:22;;;;;;;;;24.25;18.25;;;;;3.66;100.00;102995.75;4974885;28;49466;-79
2023/01/22 09:35:50;;;;;;;;;27.75;19.50;;;;;3.60;100.00;103000.66;4989277;28;73404;-81
2023/01/22 09:38:17;;;;;;;;;32.50;18.00;;;;;3.51;100.00;102997.75;4997033;28;60582;-79
2023/01/22 09:40:58;;;;;;;;;26.25;18.50;;;;;3.49;100.00;103008.88;4981417;28;45789;-79
2023/01/22 09:44:01;;;;;;;;;25.50;21.00;;;;;3.41;100.00;103018.00;4981257;28;45418;-79
2023/01/22 09:46:33;;;;;;;;;25.50;19.00;;;;;3.38;100.00;103020.47;4899406;29;45681;-79
2023/01/22 09:49:12;;;;;;;;;24.50;19.50;;;;;3.42;100.00;103018.91;4915437;28;45439;-79
2023/01/22 09:51:37;;;;;;;;;26.25;16.00;;;;;3.49;100.00;103020.84;4915735;28;45458;-79
2023/01/22 09:54:04;;;;;;;;;27.50;17.50;;;;;3.52;100.00;103026.13;4898729;29;67863;-79
2023/01/22 09:56:42;;;;;;;;;21.25;15.25;;;;;3.52;100.00;103025.25;4915010;28;46694;-79
2023/01/22 09:59:14;;;;;;;;;34.25;19.00;;;;;3.54;100.00;103024.47;4899146;29;45486;-79
2023/01/22 10:01:40;;;;;;;;;30.25;17.50;;;;;3.52;100.00;103015.81;4899597;29;45308;-79
2023/01/22 10:04:24;;;;;;;;;32.50;20.50;;;;;3.57;100.00;103016.00;4915523;28;46128;-79
2023/01/22 10:06:50;;;;;;;;;20.25;16.00;;;;;3.64;100.00;103020.53;4915173;28;45567;-79
2023/01/22 10:09:18;;;;;;;;;29.25;20.00;;;;;3.70;100.00;103025.94;4915182;28;45553;-78
2023/01/22 10:11:51;;;;;;;;;27.75;16.00;;;;;3.72;100.00;103026.00;4915338;28;45435;-79
2023/01/22 10:14:18;;;;;;;;;21.75;15.00;;;;;3.67;100.00;103021.53;4914993;28;45396;-78
2023/01/22 10:16:47;;;;;;;;;20.75;14.00;;;;;3.61;100.00;103020.44;4914936;28;47086;-79
2023/01/22 10:19:45;;;;;;;;;26.75;16.00;;;;;3.61;100.00;103029.03;4900665;28;45389;-78
2023/01/22 10:22:14;;;;;;;;;23.00;15.50;;;;;3.50;100.00;103017.47;4994959;28;45462;-79
2023/01/22 10:24:40;;;;;;;;;28.25;17.75;;;;;3.48;100.00;103021.69;4980468;28;45302;-79
2023/01/22 10:27:11;;;;;;;;;32.00;17.50;;;;;3.51;100.00;103034.69;4996900;28;64781;-79
2023/01/22 10:29:37;;;;;;;;;21.00;18.25;;;;;3.51;100.00;103032.13;4980374;28;45465;-79
2023/01/22 10:32:24;;;;;;;;;24.00;17.00;;;;;3.58;100.00;103022.91;4997833;28;45451;-79
2023/01/22 10:35:18;;;;;;;;;18.75;15.75;;;;;3.64;100.00;103024.00;4985318;28;45407;-79
2023/01/22 10:37:52;;;;;;;;;29.00;17.00;;;;;3.63;100.00;103017.09;4978117;28;45401;-79
2023/01/22 10:40:31;;;;;;;;;24.00;18.25;;;;;3.78;100.00;103021.91;4978156;28;45386;-79
2023/01/22 10:43:05;;;;;;;;;27.00;17.00;;;;;3.75;100.00;103010.63;4977917;28;45415;-79
2023/01/22 10:45:31;;;;;;;;;27.25;17.50;;;;;3.78;100.00;103010.75;4960740;28;45315;-79
2023/01/22 10:48:04;;;;;;;;;18.25;15.00;;;;;3.82;100.00;102998.00;4977678;28;45987;-79
2023/01/22 10:50:29;;;;;;;;;19.75;14.00;;;;;3.94;100.00;103000.16;4977084;28;45969;-79
2023/01/22 10:52:56;;;;;;;;;18.50;13.50;;;;;3.92;100.00;103011.22;4960007;28;63593;-79
2023/01/22 10:55:25;;;;;;;;;19.00;16.50;;;;;3.91;100.00;102994.03;4978015;28;45339;-79
2023/01/22 10:57:57;;;;;;;;;31.50;16.00;;;;;3.90;100.00;103003.47;4960131;28;45511;-79
2023/01/22 11:00:29;;;;;;;;;25.00;17.25;;;;;3.90;100.00;102989.69;4960510;28;45386;-79
2023/01/22 11:02:54;;;;;;;;;17.50;9.75;;;;;3.77;100.00;102981.53;4960615;28;45356;-79
2023/01/22 11:05:24;;;;;;;;;18.75;14.50;;;;;3.77;100.00;103002.16;4960677;28;45391;-79
2023/01/22 11:07:52;;;;;;;;;20.25;15.00;;;;;3.68;100.00;102978.63;4959994;28;46666;-79
2023/01/22 11:10:22;;;;;;;;;18.75;13.00;;;;;3.80;100.00;102996.22;4960354;28;45857;-79
2023/01/22 11:12:54;;;;;;;;;23.25;13.00;;;;;3.66;100.00;102965.69;4960441;28;45441;-79
2023/01/22 11:15:27;;;;;;;;;18.50;12.00;;;;;3.80;100.00;102978.19;4960469;28;45323;-79
2023/01/22 11:17:58;;;;;;;;;14.50;11.75;;;;;3.76;100.00;102986.63;4960154;28;47205;-79